Camden, WV

3:00 PM EST on December 25, 2014 (GMT -0500)
Quirky Towers, Vadis | Change Station
CLOSE
Current Station
Personal Weather Station
Location: Alum Bridge, WV
Elevation: 837 ft
Nearby Weather Stations

Elev 837 ft 39.04 °N, 80.71 °W | Updated 57 seconds ago

Overcast
Overcast
44.2 °F
Feels Like 43 °F
N
3.1
Wind Variable Wind from SW
Gusts 9.2 mph

Today
High -- | Low -- °F
--% Chance of Precip.
Yesterday
High -- | Low -- °F
Precip. -- in
7:39 AM 5:05 PM
Waxing Crescent, 19% visible
Pressure 30.11 in
Visibility 10.0 miles
Clouds Mostly Cloudy 1700 ft
Mostly Cloudy 2100 ft
Overcast 3400 ft
Windchill 43 °F
Dew Point 36 °F
Humidity 74%
Rainfall 0.05 in
Snow Depth Not available.
UV 0 out of 12
Pollen .10 out of 12
Air Quality Not available.
Flu Activity Not available.
METAR KW22 251935Z AUTO 23007KT 10SM BKN017 BKN021 OVC034 03/01 A3011 RMK AO2

More Conditions Fewer Conditions

Pressure 30.11 in
Visibility 10.0 miles
Clouds Mostly Cloudy 1700 ft
Mostly Cloudy 2100 ft
Overcast 3400 ft
Windchill 43 °F
Dew Point 36 °F
Humidity 74%
Rainfall 0.05 in
Snow Depth Not available.
UV 0 out of 12
Pollen .10 out of 12
Air Quality Not available.
Flu Activity Not available.
METAR KW22 251935Z AUTO 23007KT 10SM BKN017 BKN021 OVC034 03/01 A3011 RMK AO2

More Conditions Fewer Conditions

10-Day Weather Forecast

Almanac

Astronomy

Dec. 25, 2014 Rise Set
Actual Time
Civil Twilight
Nautical Twilight
Astronomical Twilight
Moon
Length of Visible Light
Length of Day
Tomorrow will be .
, % of the Moon is Illuminated

Today's Extremes

State Highs State Lows

Community

WunderPhotos

Upload Photos

1,780,376 photos uploaded!

WunderBlogs® & News

Nearby

Air Quality

  Air Quality AQ Index Pollutant
Not available.

Snow Depth

Station Depth Elevation

Earthquake Activity

City Distance Mag. Time & Date
Minimum magnitude displayed is 2.5.

Coastal Water Temperatures

Place Temperature

Nearby Weather Stations